sensor_id;sensor_type;location;lat;lon;timestamp;P1;durP1;ratioP1;P2;durP2;ratioP2
14883;SDS011;7534;50.762;7.000;2024-03-23T00:53:53;31.20;;;19.37;;
14883;SDS011;7534;50.762;7.000;2024-03-23T00:56:20;37.07;;;21.13;;
14883;SDS011;7534;50.762;7.000;2024-03-23T00:58:46;36.23;;;19.67;;
14883;SDS011;7534;50.762;7.000;2024-03-23T01:01:12;37.90;;;20.90;;
14883;SDS011;7534;50.762;7.000;2024-03-23T01:03:37;31.33;;;18.63;;
14883;SDS011;7534;50.762;7.000;2024-03-23T01:06:03;30.67;;;18.70;;
14883;SDS011;7534;50.762;7.000;2024-03-23T01:08:29;30.60;;;19.57;;
14883;SDS011;7534;50.762;7.000;2024-03-23T01:10:58;29.40;;;18.60;;
14883;SDS011;7534;50.762;7.000;2024-03-23T01:13:26;26.57;;;17.03;;
14883;SDS011;7534;50.762;7.000;2024-03-23T01:15:53;30.60;;;18.17;;
14883;SDS011;7534;50.762;7.000;2024-03-23T01:18:20;31.00;;;18.27;;
14883;SDS011;7534;50.762;7.000;2024-03-23T01:20:47;26.70;;;18.17;;
14883;SDS011;7534;50.762;7.000;2024-03-23T01:23:13;26.83;;;17.20;;
14883;SDS011;7534;50.762;7.000;2024-03-23T01:25:39;31.00;;;18.60;;
14883;SDS011;7534;50.762;7.000;2024-03-23T01:28:05;27.00;;;17.73;;
14883;SDS011;7534;50.762;7.000;2024-03-23T01:30:31;30.37;;;17.53;;
14883;SDS011;7534;50.762;7.000;2024-03-23T01:32:58;30.93;;;17.57;;
14883;SDS011;7534;50.762;7.000;2024-03-23T01:35:24;29.70;;;18.07;;
14883;SDS011;7534;50.762;7.000;2024-03-23T01:37:49;30.53;;;18.07;;
14883;SDS011;7534;50.762;7.000;2024-03-23T01:40:16;30.67;;;18.70;;
14883;SDS011;7534;50.762;7.000;2024-03-23T01:42:42;29.13;;;18.87;;
14883;SDS011;7534;50.762;7.000;2024-03-23T01:45:08;26.13;;;17.37;;
14883;SDS011;7534;50.762;7.000;2024-03-23T01:47:37;27.73;;;17.77;;
14883;SDS011;7534;50.762;7.000;2024-03-23T01:50:03;32.27;;;17.53;;
14883;SDS011;7534;50.762;7.000;2024-03-23T01:52:29;29.47;;;16.90;;
14883;SDS011;7534;50.762;7.000;2024-03-23T01:54:55;28.10;;;16.50;;
14883;SDS011;7534;50.762;7.000;2024-03-23T01:57:21;30.73;;;17.03;;
14883;SDS011;7534;50.762;7.000;2024-03-23T01:59:47;31.23;;;17.00;;
14883;SDS011;7534;50.762;7.000;2024-03-23T02:02:13;28.20;;;17.57;;
14883;SDS011;7534;50.762;7.000;2024-03-23T02:04:42;20.67;;;11.53;;
14883;SDS011;7534;50.762;7.000;2024-03-23T02:07:08;11.80;;;7.43;;
14883;SDS011;7534;50.762;7.000;2024-03-23T02:09:34;7.83;;;5.63;;
14883;SDS011;7534;50.762;7.000;2024-03-23T02:12:01;10.03;;;6.00;;
14883;SDS011;7534;50.762;7.000;2024-03-23T02:14:27;8.07;;;5.70;;
14883;SDS011;7534;50.762;7.000;2024-03-23T02:16:53;9.90;;;6.27;;
14883;SDS011;7534;50.762;7.000;2024-03-23T02:19:19;10.50;;;6.80;;
14883;SDS011;7534;50.762;7.000;2024-03-23T02:21:44;12.97;;;8.47;;
14883;SDS011;7534;50.762;7.000;2024-03-23T02:24:12;12.13;;;8.30;;
14883;SDS011;7534;50.762;7.000;2024-03-23T02:26:37;13.77;;;10.17;;
14883;SDS011;7534;50.762;7.000;2024-03-23T02:29:03;14.67;;;10.17;;
14883;SDS011;7534;50.762;7.000;2024-03-23T02:31:29;14.23;;;10.37;;
14883;SDS011;7534;50.762;7.000;2024-03-23T02:33:54;15.83;;;10.70;;
14883;SDS011;7534;50.762;7.000;2024-03-23T02:36:20;14.20;;;9.93;;
14883;SDS011;7534;50.762;7.000;2024-03-23T02:38:46;18.30;;;11.57;;
14883;SDS011;7534;50.762;7.000;2024-03-23T02:41:12;16.50;;;11.47;;
14883;SDS011;7534;50.762;7.000;2024-03-23T02:43:38;15.93;;;11.83;;
14883;SDS011;7534;50.762;7.000;2024-03-23T02:46:04;17.27;;;12.00;;
14883;SDS011;7534;50.762;7.000;2024-03-23T02:48:30;18.60;;;12.17;;
14883;SDS011;7534;50.762;7.000;2024-03-23T02:50:56;11.47;;;8.33;;
14883;SDS011;7534;50.762;7.000;2024-03-23T02:53:21;11.30;;;7.33;;
14883;SDS011;7534;50.762;7.000;2024-03-23T02:55:47;11.77;;;7.27;;
14883;SDS011;7534;50.762;7.000;2024-03-23T02:58:13;7.23;;;3.80;;
14883;SDS011;7534;50.762;7.000;2024-03-23T03:00:39;6.27;;;2.97;;
14883;SDS011;7534;50.762;7.000;2024-03-23T03:03:05;5.73;;;2.70;;
14883;SDS011;7534;50.762;7.000;2024-03-23T03:05:32;6.03;;;2.63;;
14883;SDS011;7534;50.762;7.000;2024-03-23T03:07:58;6.03;;;2.97;;
14883;SDS011;7534;50.762;7.000;2024-03-23T03:10:23;7.73;;;2.90;;
14883;SDS011;7534;50.762;7.000;2024-03-23T03:12:49;7.10;;;2.60;;
14883;SDS011;7534;50.762;7.000;2024-03-23T03:15:15;6.83;;;2.40;;
14883;SDS011;7534;50.762;7.000;2024-03-23T03:17:40;7.83;;;2.67;;
14883;SDS011;7534;50.762;7.000;2024-03-23T03:20:06;6.63;;;2.97;;
14883;SDS011;7534;50.762;7.000;2024-03-23T03:22:37;7.13;;;3.00;;
14883;SDS011;7534;50.762;7.000;2024-03-23T03:25:03;6.33;;;3.10;;
14883;SDS011;7534;50.762;7.000;2024-03-23T03:27:29;6.83;;;2.97;;
14883;SDS011;7534;50.762;7.000;2024-03-23T03:29:54;8.63;;;3.00;;
14883;SDS011;7534;50.762;7.000;2024-03-23T03:32:20;10.00;;;3.17;;
14883;SDS011;7534;50.762;7.000;2024-03-23T03:34:46;7.73;;;3.20;;
14883;SDS011;7534;50.762;7.000;2024-03-23T03:37:11;7.50;;;3.13;;
14883;SDS011;7534;50.762;7.000;2024-03-23T03:39:37;8.37;;;3.90;;
14883;SDS011;7534;50.762;7.000;2024-03-23T03:42:03;7.27;;;3.83;;
14883;SDS011;7534;50.762;7.000;2024-03-23T03:44:31;9.93;;;3.60;;
14883;SDS011;7534;50.762;7.000;2024-03-23T03:46:57;10.90;;;3.43;;
14883;SDS011;7534;50.762;7.000;2024-03-23T03:49:23;7.47;;;3.27;;
14883;SDS011;7534;50.762;7.000;2024-03-23T03:51:48;7.47;;;3.47;;
14883;SDS011;7534;50.762;7.000;2024-03-23T03:54:14;11.53;;;3.80;;
14883;SDS011;7534;50.762;7.000;2024-03-23T03:56:40;8.23;;;2.90;;
14883;SDS011;7534;50.762;7.000;2024-03-23T03:59:05;16.17;;;3.70;;
14883;SDS011;7534;50.762;7.000;2024-03-23T04:01:31;8.90;;;3.30;;
14883;SDS011;7534;50.762;7.000;2024-03-23T04:03:57;9.07;;;2.97;;
14883;SDS011;7534;50.762;7.000;2024-03-23T04:06:22;6.93;;;2.70;;
14883;SDS011;7534;50.762;7.000;2024-03-23T04:08:48;8.00;;;2.70;;
14883;SDS011;7534;50.762;7.000;2024-03-23T04:11:14;10.03;;;2.73;;
14883;SDS011;7534;50.762;7.000;2024-03-23T04:13:40;10.97;;;2.90;;
14883;SDS011;7534;50.762;7.000;2024-03-23T04:16:06;9.00;;;2.57;;
14883;SDS011;7534;50.762;7.000;2024-03-23T04:18:33;10.00;;;3.20;;
14883;SDS011;7534;50.762;7.000;2024-03-23T04:21:00;9.27;;;2.53;;
14883;SDS011;7534;50.762;7.000;2024-03-23T04:23:25;9.17;;;2.73;;
14883;SDS011;7534;50.762;7.000;2024-03-23T04:25:51;12.03;;;3.23;;
14883;SDS011;7534;50.762;7.000;2024-03-23T04:28:19;10.80;;;3.67;;
14883;SDS011;7534;50.762;7.000;2024-03-23T04:30:47;8.17;;;3.60;;
14883;SDS011;7534;50.762;7.000;2024-03-23T04:33:12;8.20;;;3.80;;
14883;SDS011;7534;50.762;7.000;2024-03-23T04:35:38;10.03;;;3.53;;
14883;SDS011;7534;50.762;7.000;2024-03-23T04:38:04;8.17;;;3.60;;
14883;SDS011;7534;50.762;7.000;2024-03-23T04:40:29;11.10;;;3.70;;
14883;SDS011;7534;50.762;7.000;2024-03-23T04:42:55;7.73;;;3.07;;
14883;SDS011;7534;50.762;7.000;2024-03-23T04:45:21;12.03;;;3.73;;
14883;SDS011;7534;50.762;7.000;2024-03-23T04:47:46;7.03;;;2.53;;
14883;SDS011;7534;50.762;7.000;2024-03-23T04:50:12;7.67;;;3.10;;
14883;SDS011;7534;50.762;7.000;2024-03-23T04:52:38;10.03;;;3.47;;
14883;SDS011;7534;50.762;7.000;2024-03-23T04:55:03;6.87;;;3.27;;
14883;SDS011;7534;50.762;7.000;2024-03-23T04:57:29;9.97;;;3.43;;
14883;SDS011;7534;50.762;7.000;2024-03-23T04:59:55;10.00;;;3.03;;
14883;SDS011;7534;50.762;7.000;2024-03-23T05:02:21;12.50;;;3.23;;
14883;SDS011;7534;50.762;7.000;2024-03-23T05:04:47;8.57;;;3.00;;
14883;SDS011;7534;50.762;7.000;2024-03-23T05:07:12;8.80;;;2.93;;
14883;SDS011;7534;50.762;7.000;2024-03-23T05:09:38;9.17;;;2.83;;
14883;SDS011;7534;50.762;7.000;2024-03-23T05:12:04;8.37;;;2.80;;
14883;SDS011;7534;50.762;7.000;2024-03-23T05:14:30;11.03;;;3.70;;
14883;SDS011;7534;50.762;7.000;2024-03-23T05:16:56;6.97;;;2.63;;
14883;SDS011;7534;50.762;7.000;2024-03-23T05:19:21;7.57;;;3.37;;
14883;SDS011;7534;50.762;7.000;2024-03-23T05:21:47;9.93;;;3.00;;
14883;SDS011;7534;50.762;7.000;2024-03-23T05:24:13;9.70;;;3.00;;
14883;SDS011;7534;50.762;7.000;2024-03-23T05:26:39;9.57;;;2.93;;
14883;SDS011;7534;50.762;7.000;2024-03-23T05:29:06;9.73;;;2.93;;
14883;SDS011;7534;50.762;7.000;2024-03-23T05:31:35;10.10;;;2.60;;
14883;SDS011;7534;50.762;7.000;2024-03-23T05:34:01;8.07;;;2.83;;
14883;SDS011;7534;50.762;7.000;2024-03-23T05:36:27;10.57;;;3.80;;
14883;SDS011;7534;50.762;7.000;2024-03-23T05:38:52;12.20;;;3.30;;
14883;SDS011;7534;50.762;7.000;2024-03-23T05:41:18;11.00;;;3.50;;
14883;SDS011;7534;50.762;7.000;2024-03-23T05:43:44;7.90;;;2.77;;
14883;SDS011;7534;50.762;7.000;2024-03-23T05:46:09;10.07;;;3.07;;
14883;SDS011;7534;50.762;7.000;2024-03-23T05:48:35;8.97;;;2.90;;
14883;SDS011;7534;50.762;7.000;2024-03-23T05:51:01;6.37;;;2.90;;
14883;SDS011;7534;50.762;7.000;2024-03-23T05:53:27;8.33;;;2.70;;
14883;SDS011;7534;50.762;7.000;2024-03-23T05:56:01;9.53;;;2.90;;
14883;SDS011;7534;50.762;7.000;2024-03-23T05:58:31;12.13;;;3.17;;
14883;SDS011;7534;50.762;7.000;2024-03-23T06:00:59;11.50;;;3.43;;
14883;SDS011;7534;50.762;7.000;2024-03-23T06:03:26;9.07;;;3.20;;
14883;SDS011;7534;50.762;7.000;2024-03-23T06:05:53;9.73;;;3.27;;
14883;SDS011;7534;50.762;7.000;2024-03-23T06:08:19;8.70;;;3.40;;
14883;SDS011;7534;50.762;7.000;2024-03-23T06:10:45;11.87;;;3.17;;
14883;SDS011;7534;50.762;7.000;2024-03-23T06:13:11;8.77;;;3.03;;
14883;SDS011;7534;50.762;7.000;2024-03-23T06:15:38;10.17;;;3.67;;
14883;SDS011;7534;50.762;7.000;2024-03-23T06:18:04;9.40;;;3.13;;
14883;SDS011;7534;50.762;7.000;2024-03-23T06:20:30;10.33;;;3.10;;
14883;SDS011;7534;50.762;7.000;2024-03-23T06:22:56;12.40;;;3.67;;
14883;SDS011;7534;50.762;7.000;2024-03-23T06:25:22;12.60;;;3.77;;
14883;SDS011;7534;50.762;7.000;2024-03-23T06:27:48;9.30;;;3.37;;
14883;SDS011;7534;50.762;7.000;2024-03-23T06:30:14;11.70;;;4.23;;
14883;SDS011;7534;50.762;7.000;2024-03-23T06:32:39;6.47;;;2.80;;
14883;SDS011;7534;50.762;7.000;2024-03-23T06:35:05;9.10;;;3.23;;
14883;SDS011;7534;50.762;7.000;2024-03-23T06:37:33;9.63;;;3.97;;
14883;SDS011;7534;50.762;7.000;2024-03-23T06:40:03;7.87;;;2.90;;
14883;SDS011;7534;50.762;7.000;2024-03-23T06:42:33;7.53;;;2.87;;
14883;SDS011;7534;50.762;7.000;2024-03-23T06:44:59;7.53;;;3.03;;
14883;SDS011;7534;50.762;7.000;2024-03-23T06:47:25;6.93;;;2.73;;
14883;SDS011;7534;50.762;7.000;2024-03-23T06:49:50;5.80;;;2.60;;
14883;SDS011;7534;50.762;7.000;2024-03-23T06:52:16;5.13;;;2.37;;
14883;SDS011;7534;50.762;7.000;2024-03-23T06:54:42;7.03;;;2.40;;
14883;SDS011;7534;50.762;7.000;2024-03-23T06:57:09;5.60;;;2.70;;
14883;SDS011;7534;50.762;7.000;2024-03-23T06:59:37;6.90;;;3.00;;
14883;SDS011;7534;50.762;7.000;2024-03-23T07:02:03;4.87;;;2.23;;
14883;SDS011;7534;50.762;7.000;2024-03-23T07:04:31;5.20;;;2.40;;
14883;SDS011;7534;50.762;7.000;2024-03-23T07:06:56;5.67;;;2.53;;
14883;SDS011;7534;50.762;7.000;2024-03-23T07:09:22;5.83;;;2.60;;
14883;SDS011;7534;50.762;7.000;2024-03-23T07:11:51;6.07;;;2.53;;
14883;SDS011;7534;50.762;7.000;2024-03-23T07:14:19;5.90;;;2.57;;
14883;SDS011;7534;50.762;7.000;2024-03-23T07:16:45;6.10;;;2.53;;
14883;SDS011;7534;50.762;7.000;2024-03-23T07:19:10;6.47;;;2.90;;
14883;SDS011;7534;50.762;7.000;2024-03-23T07:21:36;5.97;;;2.70;;
14883;SDS011;7534;50.762;7.000;2024-03-23T07:24:02;5.65;;;2.75;;
14883;SDS011;7534;50.762;7.000;2024-03-23T07:26:28;5.93;;;2.80;;
14883;SDS011;7534;50.762;7.000;2024-03-23T07:28:53;7.30;;;3.42;;
14883;SDS011;7534;50.762;7.000;2024-03-23T07:31:19;4.70;;;2.88;;
14883;SDS011;7534;50.762;7.000;2024-03-23T07:33:46;6.55;;;3.28;;
14883;SDS011;7534;50.762;7.000;2024-03-23T07:36:13;5.88;;;2.95;;
14883;SDS011;7534;50.762;7.000;2024-03-23T07:38:42;7.63;;;3.35;;
14883;SDS011;7534;50.762;7.000;2024-03-23T07:41:15;9.00;;;3.88;;
14883;SDS011;7534;50.762;7.000;2024-03-23T07:43:44;6.63;;;2.80;;
14883;SDS011;7534;50.762;7.000;2024-03-23T07:46:12;6.05;;;3.55;;
14883;SDS011;7534;50.762;7.000;2024-03-23T07:48:38;7.65;;;3.30;;
14883;SDS011;7534;50.762;7.000;2024-03-23T07:51:08;7.18;;;3.28;;
14883;SDS011;7534;50.762;7.000;2024-03-23T07:53:36;7.85;;;3.83;;
14883;SDS011;7534;50.762;7.000;2024-03-23T07:56:05;7.53;;;3.78;;
14883;SDS011;7534;50.762;7.000;2024-03-23T07:58:33;8.85;;;4.13;;
14883;SDS011;7534;50.762;7.000;2024-03-23T08:03:33;11.32;;;4.85;;
14883;SDS011;7534;50.762;7.000;2024-03-23T08:06:33;7.25;;;4.10;;
14883;SDS011;7534;50.762;7.000;2024-03-23T08:08:54;4.33;;;2.53;;
14883;SDS011;7534;50.762;7.000;2024-03-23T08:11:27;4.10;;;2.23;;
14883;SDS011;7534;50.762;7.000;2024-03-23T08:13:55;3.80;;;1.70;;
14883;SDS011;7534;50.762;7.000;2024-03-23T08:16:21;4.70;;;1.80;;
14883;SDS011;7534;50.762;7.000;2024-03-23T08:18:47;4.18;;;1.80;;
14883;SDS011;7534;50.762;7.000;2024-03-23T08:21:13;4.50;;;1.60;;
14883;SDS011;7534;50.762;7.000;2024-03-23T08:23:39;6.33;;;1.60;;
14883;SDS011;7534;50.762;7.000;2024-03-23T08:26:06;5.20;;;1.47;;
14883;SDS011;7534;50.762;7.000;2024-03-23T08:28:34;4.27;;;1.80;;
14883;SDS011;7534;50.762;7.000;2024-03-23T08:31:00;3.83;;;1.70;;
14883;SDS011;7534;50.762;7.000;2024-03-23T08:33:30;2.40;;;1.53;;
14883;SDS011;7534;50.762;7.000;2024-03-23T08:35:57;3.27;;;1.50;;
14883;SDS011;7534;50.762;7.000;2024-03-23T08:38:24;3.17;;;1.83;;
14883;SDS011;7534;50.762;7.000;2024-03-23T08:43:28;4.00;;;2.40;;
14883;SDS011;7534;50.762;7.000;2024-03-23T08:46:02;3.70;;;2.40;;
14883;SDS011;7534;50.762;7.000;2024-03-23T08:48:30;5.30;;;2.72;;
14883;SDS011;7534;50.762;7.000;2024-03-23T08:51:06;5.22;;;2.80;;
14883;SDS011;7534;50.762;7.000;2024-03-23T08:53:34;7.18;;;3.60;;
14883;SDS011;7534;50.762;7.000;2024-03-23T08:56:00;6.88;;;3.80;;
14883;SDS011;7534;50.762;7.000;2024-03-23T08:58:27;6.07;;;3.35;;
14883;SDS011;7534;50.762;7.000;2024-03-23T09:00:55;5.28;;;3.47;;
14883;SDS011;7534;50.762;7.000;2024-03-23T09:03:22;8.00;;;4.68;;
14883;SDS011;7534;50.762;7.000;2024-03-23T09:05:49;7.88;;;4.43;;
14883;SDS011;7534;50.762;7.000;2024-03-23T09:08:16;8.73;;;4.90;;
14883;SDS011;7534;50.762;7.000;2024-03-23T09:10:42;9.63;;;5.43;;
14883;SDS011;7534;50.762;7.000;2024-03-23T09:13:08;9.17;;;5.10;;
14883;SDS011;7534;50.762;7.000;2024-03-23T09:15:34;10.83;;;5.10;;
14883;SDS011;7534;50.762;7.000;2024-03-23T09:18:03;11.30;;;5.10;;
14883;SDS011;7534;50.762;7.000;2024-03-23T09:20:32;10.30;;;4.30;;
14883;SDS011;7534;50.762;7.000;2024-03-23T09:22:58;9.23;;;3.97;;
14883;SDS011;7534;50.762;7.000;2024-03-23T09:25:24;6.17;;;3.10;;
14883;SDS011;7534;50.762;7.000;2024-03-23T09:27:50;6.27;;;3.10;;
14883;SDS011;7534;50.762;7.000;2024-03-23T09:30:17;7.53;;;2.93;;
14883;SDS011;7534;50.762;7.000;2024-03-23T09:32:43;6.37;;;2.57;;
14883;SDS011;7534;50.762;7.000;2024-03-23T09:35:09;7.67;;;2.90;;
14883;SDS011;7534;50.762;7.000;2024-03-23T09:37:36;6.53;;;2.92;;
14883;SDS011;7534;50.762;7.000;2024-03-23T09:40:04;6.72;;;2.72;;
14883;SDS011;7534;50.762;7.000;2024-03-23T09:42:37;4.78;;;2.20;;
14883;SDS011;7534;50.762;7.000;2024-03-23T09:45:06;7.90;;;2.85;;
14883;SDS011;7534;50.762;7.000;2024-03-23T09:47:42;6.13;;;2.70;;
14883;SDS011;7534;50.762;7.000;2024-03-23T09:50:09;6.57;;;2.53;;
14883;SDS011;7534;50.762;7.000;2024-03-23T09:52:35;7.35;;;2.80;;
14883;SDS011;7534;50.762;7.000;2024-03-23T09:55:01;6.20;;;2.75;;
14883;SDS011;7534;50.762;7.000;2024-03-23T09:57:26;8.25;;;3.25;;
14883;SDS011;7534;50.762;7.000;2024-03-23T09:59:52;6.97;;;2.87;;
14883;SDS011;7534;50.762;7.000;2024-03-23T10:02:19;6.30;;;2.67;;
14883;SDS011;7534;50.762;7.000;2024-03-23T10:04:46;4.80;;;2.37;;
14883;SDS011;7534;50.762;7.000;2024-03-23T10:09:43;6.07;;;2.93;;
14883;SDS011;7534;50.762;7.000;2024-03-23T10:12:09;6.67;;;2.77;;
14883;SDS011;7534;50.762;7.000;2024-03-23T10:14:38;6.30;;;2.60;;
14883;SDS011;7534;50.762;7.000;2024-03-23T10:17:11;6.27;;;2.50;;
14883;SDS011;7534;50.762;7.000;2024-03-23T10:19:39;5.80;;;2.40;;
14883;SDS011;7534;50.762;7.000;2024-03-23T10:22:07;5.67;;;2.87;;
14883;SDS011;7534;50.762;7.000;2024-03-23T10:24:39;5.93;;;2.60;;
14883;SDS011;7534;50.762;7.000;2024-03-23T10:27:04;5.00;;;2.53;;
14883;SDS011;7534;50.762;7.000;2024-03-23T10:29:30;4.20;;;2.13;;
14883;SDS011;7534;50.762;7.000;2024-03-23T10:32:09;3.80;;;1.70;;
14883;SDS011;7534;50.762;7.000;2024-03-23T10:34:39;4.03;;;1.60;;
14883;SDS011;7534;50.762;7.000;2024-03-23T10:37:05;3.47;;;1.73;;
14883;SDS011;7534;50.762;7.000;2024-03-23T10:39:32;3.30;;;1.27;;
14883;SDS011;7534;50.762;7.000;2024-03-23T10:42:06;2.40;;;1.50;;
14883;SDS011;7534;50.762;7.000;2024-03-23T10:44:35;2.93;;;1.20;;
14883;SDS011;7534;50.762;7.000;2024-03-23T10:47:02;1.50;;;1.40;;
14883;SDS011;7534;50.762;7.000;2024-03-23T10:49:37;2.47;;;1.27;;
14883;SDS011;7534;50.762;7.000;2024-03-23T10:52:03;1.23;;;1.13;;
14883;SDS011;7534;50.762;7.000;2024-03-23T10:54:30;1.50;;;1.17;;
14883;SDS011;7534;50.762;7.000;2024-03-23T10:57:04;1.90;;;1.10;;
14883;SDS011;7534;50.762;7.000;2024-03-23T10:59:37;2.30;;;1.50;;
14883;SDS011;7534;50.762;7.000;2024-03-23T11:02:04;2.80;;;1.30;;
14883;SDS011;7534;50.762;7.000;2024-03-23T11:04:33;3.30;;;1.60;;
14883;SDS011;7534;50.762;7.000;2024-03-23T11:09:48;2.60;;;1.57;;
14883;SDS011;7534;50.762;7.000;2024-03-23T11:14:58;3.53;;;1.80;;
14883;SDS011;7534;50.762;7.000;2024-03-23T11:17:26;5.03;;;2.40;;
14883;SDS011;7534;50.762;7.000;2024-03-23T11:19:59;4.40;;;2.73;;
14883;SDS011;7534;50.762;7.000;2024-03-23T11:22:48;6.27;;;3.20;;
14883;SDS011;7534;50.762;7.000;2024-03-23T11:25:19;7.00;;;2.67;;
14883;SDS011;7534;50.762;7.000;2024-03-23T11:27:47;4.30;;;2.60;;
14883;SDS011;7534;50.762;7.000;2024-03-23T11:30:24;4.17;;;2.40;;
14883;SDS011;7534;50.762;7.000;2024-03-23T11:32:57;4.27;;;1.80;;
14883;SDS011;7534;50.762;7.000;2024-03-23T11:35:29;5.07;;;2.20;;
14883;SDS011;7534;50.762;7.000;2024-03-23T11:38:14;3.13;;;1.67;;
14883;SDS011;7534;50.762;7.000;2024-03-23T11:40:45;3.73;;;2.13;;
14883;SDS011;7534;50.762;7.000;2024-03-23T11:43:15;3.90;;;1.80;;
14883;SDS011;7534;50.762;7.000;2024-03-23T11:45:49;4.03;;;2.03;;
14883;SDS011;7534;50.762;7.000;2024-03-23T11:48:18;4.50;;;1.90;;
14883;SDS011;7534;50.762;7.000;2024-03-23T11:50:56;3.53;;;1.70;;
14883;SDS011;7534;50.762;7.000;2024-03-23T11:53:23;5.10;;;2.40;;
14883;SDS011;7534;50.762;7.000;2024-03-23T11:55:57;6.57;;;2.60;;
14883;SDS011;7534;50.762;7.000;2024-03-23T11:58:25;4.70;;;2.80;;
14883;SDS011;7534;50.762;7.000;2024-03-23T12:00:59;4.87;;;2.80;;
14883;SDS011;7534;50.762;7.000;2024-03-23T12:03:30;6.27;;;3.63;;
14883;SDS011;7534;50.762;7.000;2024-03-23T12:05:59;4.80;;;3.53;;
14883;SDS011;7534;50.762;7.000;2024-03-23T12:08:30;5.73;;;3.53;;
14883;SDS011;7534;50.762;7.000;2024-03-23T12:13:41;3.80;;;2.90;;
14883;SDS011;7534;50.762;7.000;2024-03-23T12:16:18;3.77;;;2.80;;
14883;SDS011;7534;50.762;7.000;2024-03-23T12:18:51;4.90;;;3.13;;
14883;SDS011;7534;50.762;7.000;2024-03-23T12:21:17;4.40;;;3.23;;
14883;SDS011;7534;50.762;7.000;2024-03-23T12:23:43;5.20;;;3.47;;
14883;SDS011;7534;50.762;7.000;2024-03-23T12:26:10;6.60;;;3.60;;
14883;SDS011;7534;50.762;7.000;2024-03-23T12:28:37;6.15;;;3.08;;
14883;SDS011;7534;50.762;7.000;2024-03-23T12:31:03;4.57;;;3.13;;
14883;SDS011;7534;50.762;7.000;2024-03-23T12:33:29;4.80;;;2.90;;
14883;SDS011;7534;50.762;7.000;2024-03-23T12:35:55;5.28;;;2.88;;
14883;SDS011;7534;50.762;7.000;2024-03-23T12:38:21;6.67;;;2.70;;
14883;SDS011;7534;50.762;7.000;2024-03-23T12:40:47;4.67;;;2.30;;
14883;SDS011;7534;50.762;7.000;2024-03-23T12:43:13;4.03;;;1.80;;
14883;SDS011;7534;50.762;7.000;2024-03-23T12:45:39;3.93;;;1.50;;
14883;SDS011;7534;50.762;7.000;2024-03-23T12:48:06;3.70;;;1.67;;
14883;SDS011;7534;50.762;7.000;2024-03-23T12:50:32;3.40;;;1.63;;
14883;SDS011;7534;50.762;7.000;2024-03-23T12:52:58;2.50;;;1.20;;
14883;SDS011;7534;50.762;7.000;2024-03-23T12:55:23;4.03;;;1.67;;
14883;SDS011;7534;50.762;7.000;2024-03-23T12:57:49;1.50;;;1.00;;
14883;SDS011;7534;50.762;7.000;2024-03-23T13:00:15;1.20;;;1.03;;
14883;SDS011;7534;50.762;7.000;2024-03-23T13:02:42;5.17;;;1.13;;
14883;SDS011;7534;50.762;7.000;2024-03-23T13:05:08;1.87;;;1.03;;
14883;SDS011;7534;50.762;7.000;2024-03-23T13:07:34;1.53;;;1.10;;
14883;SDS011;7534;50.762;7.000;2024-03-23T13:10:00;3.33;;;1.23;;
14883;SDS011;7534;50.762;7.000;2024-03-23T13:12:26;2.13;;;1.27;;
14883;SDS011;7534;50.762;7.000;2024-03-23T13:14:52;3.17;;;1.27;;
14883;SDS011;7534;50.762;7.000;2024-03-23T13:17:17;3.13;;;1.47;;
14883;SDS011;7534;50.762;7.000;2024-03-23T13:19:43;1.53;;;1.20;;
14883;SDS011;7534;50.762;7.000;2024-03-23T13:22:09;2.30;;;1.10;;
14883;SDS011;7534;50.762;7.000;2024-03-23T13:24:38;2.03;;;1.20;;
14883;SDS011;7534;50.762;7.000;2024-03-23T13:27:04;1.57;;;1.00;;
14883;SDS011;7534;50.762;7.000;2024-03-23T13:29:33;5.03;;;1.00;;
14883;SDS011;7534;50.762;7.000;2024-03-23T13:32:05;1.50;;;1.10;;
14883;SDS011;7534;50.762;7.000;2024-03-23T13:34:32;3.93;;;2.10;;
14883;SDS011;7534;50.762;7.000;2024-03-23T13:36:59;2.27;;;1.30;;
14883;SDS011;7534;50.762;7.000;2024-03-23T13:39:26;1.50;;;1.40;;
14883;SDS011;7534;50.762;7.000;2024-03-23T13:41:54;1.30;;;1.20;;
14883;SDS011;7534;50.762;7.000;2024-03-23T13:44:23;2.27;;;1.40;;
14883;SDS011;7534;50.762;7.000;2024-03-23T13:46:49;2.17;;;1.50;;
14883;SDS011;7534;50.762;7.000;2024-03-23T13:49:25;3.47;;;1.80;;
14883;SDS011;7534;50.762;7.000;2024-03-23T13:51:53;2.67;;;1.30;;
14883;SDS011;7534;50.762;7.000;2024-03-23T13:54:23;4.23;;;1.63;;
14883;SDS011;7534;50.762;7.000;2024-03-23T13:56:52;4.10;;;1.90;;
14883;SDS011;7534;50.762;7.000;2024-03-23T13:59:20;3.03;;;1.70;;
14883;SDS011;7534;50.762;7.000;2024-03-23T14:01:48;3.10;;;2.00;;
14883;SDS011;7534;50.762;7.000;2024-03-23T14:04:14;4.30;;;1.90;;
14883;SDS011;7534;50.762;7.000;2024-03-23T14:06:44;4.63;;;2.00;;
14883;SDS011;7534;50.762;7.000;2024-03-23T14:09:11;4.70;;;1.80;;
14883;SDS011;7534;50.762;7.000;2024-03-23T14:11:43;3.20;;;2.00;;
14883;SDS011;7534;50.762;7.000;2024-03-23T14:14:09;5.37;;;2.40;;
14883;SDS011;7534;50.762;7.000;2024-03-23T14:16:34;3.87;;;1.90;;
14883;SDS011;7534;50.762;7.000;2024-03-23T14:19:00;3.73;;;1.97;;
14883;SDS011;7534;50.762;7.000;2024-03-23T14:21:26;3.00;;;1.50;;
14883;SDS011;7534;50.762;7.000;2024-03-23T14:23:52;2.10;;;1.40;;
14883;SDS011;7534;50.762;7.000;2024-03-23T14:26:18;3.90;;;1.50;;
14883;SDS011;7534;50.762;7.000;2024-03-23T14:28:45;3.20;;;1.50;;
14883;SDS011;7534;50.762;7.000;2024-03-23T14:31:11;4.27;;;1.77;;
14883;SDS011;7534;50.762;7.000;2024-03-23T14:33:39;3.00;;;1.90;;
14883;SDS011;7534;50.762;7.000;2024-03-23T14:36:11;2.93;;;2.23;;
14883;SDS011;7534;50.762;7.000;2024-03-23T14:38:38;6.80;;;2.27;;
14883;SDS011;7534;50.762;7.000;2024-03-23T14:41:03;3.43;;;1.97;;
14883;SDS011;7534;50.762;7.000;2024-03-23T14:43:29;2.63;;;1.77;;
14883;SDS011;7534;50.762;7.000;2024-03-23T14:46:08;2.07;;;1.50;;
14883;SDS011;7534;50.762;7.000;2024-03-23T14:48:39;3.20;;;1.50;;
14883;SDS011;7534;50.762;7.000;2024-03-23T14:51:07;2.55;;;1.70;;
14883;SDS011;7534;50.762;7.000;2024-03-23T14:53:33;3.10;;;1.77;;
14883;SDS011;7534;50.762;7.000;2024-03-23T14:56:00;2.47;;;1.70;;
14883;SDS011;7534;50.762;7.000;2024-03-23T14:58:27;3.17;;;1.90;;
14883;SDS011;7534;50.762;7.000;2024-03-23T15:01:01;2.73;;;1.53;;
14883;SDS011;7534;50.762;7.000;2024-03-23T15:03:28;3.20;;;2.13;;
14883;SDS011;7534;50.762;7.000;2024-03-23T15:05:55;3.27;;;1.90;;
14883;SDS011;7534;50.762;7.000;2024-03-23T15:08:22;2.37;;;1.60;;
14883;SDS011;7534;50.762;7.000;2024-03-23T15:10:48;2.70;;;1.43;;
14883;SDS011;7534;50.762;7.000;2024-03-23T15:13:14;2.53;;;1.20;;
14883;SDS011;7534;50.762;7.000;2024-03-23T15:15:41;2.17;;;1.10;;
14883;SDS011;7534;50.762;7.000;2024-03-23T15:18:12;1.87;;;1.03;;
14883;SDS011;7534;50.762;7.000;2024-03-23T15:20:42;1.73;;;1.00;;
14883;SDS011;7534;50.762;7.000;2024-03-23T15:23:20;1.63;;;1.10;;
14883;SDS011;7534;50.762;7.000;2024-03-23T15:25:53;2.30;;;1.40;;
14883;SDS011;7534;50.762;7.000;2024-03-23T15:28:25;3.17;;;1.40;;
14883;SDS011;7534;50.762;7.000;2024-03-23T15:30:53;2.97;;;1.33;;
14883;SDS011;7534;50.762;7.000;2024-03-23T15:33:23;2.10;;;1.37;;
14883;SDS011;7534;50.762;7.000;2024-03-23T15:35:49;3.17;;;1.53;;
14883;SDS011;7534;50.762;7.000;2024-03-23T15:38:15;1.80;;;1.13;;
14883;SDS011;7534;50.762;7.000;2024-03-23T15:40:40;2.17;;;1.17;;
14883;SDS011;7534;50.762;7.000;2024-03-23T15:43:06;1.50;;;1.20;;
14883;SDS011;7534;50.762;7.000;2024-03-23T15:45:32;6.10;;;3.77;;
14883;SDS011;7534;50.762;7.000;2024-03-23T15:47:58;2.47;;;1.47;;
14883;SDS011;7534;50.762;7.000;2024-03-23T15:50:23;3.70;;;1.97;;
14883;SDS011;7534;50.762;7.000;2024-03-23T15:52:49;1.77;;;1.40;;
14883;SDS011;7534;50.762;7.000;2024-03-23T15:55:15;1.47;;;1.10;;
14883;SDS011;7534;50.762;7.000;2024-03-23T15:57:41;2.47;;;1.60;;
14883;SDS011;7534;50.762;7.000;2024-03-23T16:00:07;2.53;;;1.47;;
14883;SDS011;7534;50.762;7.000;2024-03-23T16:02:34;2.20;;;1.30;;
14883;SDS011;7534;50.762;7.000;2024-03-23T16:05:00;1.53;;;1.27;;
14883;SDS011;7534;50.762;7.000;2024-03-23T16:07:28;1.57;;;1.30;;